Time;durP1;ratioP1;P1;durP2;ratioP2;P2;SDS_P1;SDS_P2;PMS_P1;PMS_P2;Temp;Humidity;BMP_temperature;BMP_pressure;BME280_temperature;BME280_humidity;BME280_pressure;Samples;Min_cycle;Max_cycle;Signal;HPM_P1;HPM_P2
2021/11/20 00:01:56;;;;;;;25.27;14.60;;;6.90;99.90;;;;;;5063253;28;20216;-86
2021/11/20 00:04:23;;;;;;;21.30;15.02;;;6.90;99.90;;;;;;5062434;28;20209;-85
2021/11/20 00:06:53;;;;;;;21.23;14.93;;;6.90;99.90;;;;;;5062701;28;20292;-86
2021/11/20 00:09:24;;;;;;;23.60;15.32;;;6.80;99.90;;;;;;5062471;28;20209;-86
2021/11/20 00:11:56;;;;;;;19.45;12.32;;;6.90;99.90;;;;;;5062861;28;20205;-84
2021/11/20 00:14:24;;;;;;;18.27;13.10;;;6.80;99.90;;;;;;5062484;28;20212;-85
2021/11/20 00:16:52;;;;;;;19.42;14.80;;;6.80;99.90;;;;;;5062142;28;20205;-85
2021/11/20 00:19:20;;;;;;;18.65;14.48;;;6.80;99.90;;;;;;5061789;28;20221;-85
2021/11/20 00:21:50;;;;;;;18.27;14.13;;;6.80;99.90;;;;;;5061938;28;20206;-84
2021/11/20 00:24:22;;;;;;;19.60;14.15;;;6.90;99.90;;;;;;5062187;28;20202;-85
2021/11/20 00:26:49;;;;;;;20.35;15.40;;;6.80;99.90;;;;;;5062438;28;20216;-86
2021/11/20 00:29:21;;;;;;;19.85;15.43;;;6.90;99.90;;;;;;5061305;28;20288;-85
2021/11/20 00:31:51;;;;;;;17.55;13.63;;;6.90;99.90;;;;;;5061936;28;20210;-86
2021/11/20 00:34:21;;;;;;;19.17;14.40;;;6.90;99.90;;;;;;5062015;28;20201;-86
2021/11/20 00:36:48;;;;;;;24.13;15.18;;;6.90;99.90;;;;;;5060974;28;20202;-86
2021/11/20 00:39:18;;;;;;;20.55;14.60;;;6.90;99.90;;;;;;5061913;28;20301;-85
2021/11/20 00:41:45;;;;;;;19.67;13.70;;;6.90;99.90;;;;;;5061559;28;20205;-85
2021/11/20 00:44:13;;;;;;;20.42;14.10;;;7.00;99.90;;;;;;5061690;28;20539;-85
2021/11/20 00:46:41;;;;;;;21.33;15.38;;;6.90;99.90;;;;;;5061639;28;20733;-85
2021/11/20 00:49:08;;;;;;;31.33;15.35;;;6.80;99.90;;;;;;5061871;28;20223;-85
2021/11/20 00:51:36;;;;;;;22.95;16.92;;;6.90;99.90;;;;;;5061065;28;20589;-85
2021/11/20 00:54:04;;;;;;;20.27;14.77;;;6.90;99.90;;;;;;5060968;28;20209;-86
2021/11/20 00:56:32;;;;;;;20.85;15.43;;;6.80;99.90;;;;;;5060945;28;20209;-85
2021/11/20 00:59:00;;;;;;;27.58;19.30;;;6.80;99.90;;;;;;5061911;28;20233;-85
2021/11/20 01:01:31;;;;;;;21.67;17.65;;;6.80;99.90;;;;;;5061319;28;20200;-85
2021/11/20 01:03:59;;;;;;;25.27;16.63;;;6.90;99.90;;;;;;5060447;28;20205;-85
2021/11/20 01:06:26;;;;;;;22.48;17.42;;;7.00;99.90;;;;;;5060382;28;20205;-85
2021/11/20 01:08:54;;;;;;;22.05;14.93;;;7.00;99.90;;;;;;5061489;28;20240;-86
2021/11/20 01:11:24;;;;;;;25.55;17.63;;;6.90;99.90;;;;;;5060846;28;20205;-86
2021/11/20 01:13:52;;;;;;;20.10;14.25;;;7.00;99.90;;;;;;5061394;28;20214;-86
2021/11/20 01:16:21;;;;;;;23.45;15.05;;;6.90;99.90;;;;;;5062288;28;20213;-86
2021/11/20 01:18:48;;;;;;;28.10;18.08;;;6.90;99.90;;;;;;5060956;28;20232;-85
2021/11/20 01:21:17;;;;;;;16.85;13.85;;;6.80;99.90;;;;;;5062225;28;20202;-86
2021/11/20 01:23:46;;;;;;;17.95;15.02;;;6.80;99.90;;;;;;5060738;28;20198;-85
2021/11/20 01:26:14;;;;;;;21.80;16.63;;;6.90;99.90;;;;;;5061702;28;20210;-86
2021/11/20 01:28:43;;;;;;;20.25;14.63;;;6.80;99.90;;;;;;5060544;28;20225;-86
2021/11/20 01:31:12;;;;;;;24.58;16.17;;;6.80;99.90;;;;;;5060691;28;20198;-85
2021/11/20 01:33:40;;;;;;;18.42;13.75;;;6.80;99.90;;;;;;5060466;28;20289;-86
2021/11/20 01:36:08;;;;;;;19.17;15.32;;;6.80;99.90;;;;;;5061615;28;20205;-85
2021/11/20 01:38:37;;;;;;;16.98;14.40;;;6.70;99.90;;;;;;5059983;28;20229;-85
2021/11/20 01:41:05;;;;;;;21.00;15.10;;;6.80;99.90;;;;;;5061072;28;20206;-86
2021/11/20 01:43:32;;;;;;;20.42;15.00;;;6.70;99.90;;;;;;5060521;28;20216;-86
2021/11/20 01:46:01;;;;;;;23.25;16.05;;;6.80;99.90;;;;;;5057505;28;20206;-85
2021/11/20 01:48:55;;;;;;;22.42;13.98;;;6.70;99.90;;;;;;5062426;28;20221;-86
2021/11/20 01:51:25;;;;;;;15.00;13.38;;;6.70;99.90;;;;;;5064578;28;20201;-86
2021/11/20 01:54:04;;;;;;;22.23;16.40;;;6.80;99.90;;;;;;5064849;28;20571;-86
2021/11/20 01:56:37;;;;;;;21.85;15.90;;;6.70;99.90;;;;;;5064546;28;20237;-86
2021/11/20 01:59:09;;;;;;;20.70;14.40;;;6.90;99.90;;;;;;5064856;28;20229;-86
2021/11/20 02:01:43;;;;;;;20.88;15.93;;;6.90;99.90;;;;;;5064672;28;20202;-86
2021/11/20 02:04:16;;;;;;;20.92;15.82;;;6.90;99.90;;;;;;5050748;28;20196;-86
2021/11/20 02:06:49;;;;;;;22.77;18.80;;;7.00;99.90;;;;;;5064596;28;20231;-85
2021/11/20 02:09:22;;;;;;;22.75;15.15;;;7.00;99.90;;;;;;5064761;28;20193;-86
2021/11/20 02:11:52;;;;;;;23.80;16.42;;;6.70;99.90;;;;;;5064582;28;20198;-85
2021/11/20 02:14:21;;;;;;;21.23;16.60;;;6.80;99.90;;;;;;5064745;28;20201;-85
2021/11/20 02:16:51;;;;;;;21.80;16.65;;;6.90;99.90;;;;;;5064691;28;20275;-86
2021/11/20 02:19:23;;;;;;;20.30;14.93;;;6.80;99.90;;;;;;5063326;28;20226;-85
2021/11/20 02:21:55;;;;;;;25.27;15.95;;;6.80;99.90;;;;;;5044744;28;20195;-85
2021/11/20 02:24:21;;;;;;;22.40;14.18;;;6.70;99.90;;;;;;5046293;28;20213;-85
2021/11/20 02:26:48;;;;;;;20.08;14.65;;;6.70;99.90;;;;;;5063458;28;20213;-86
2021/11/20 02:29:16;;;;;;;16.70;13.75;;;6.90;99.90;;;;;;5064376;28;20209;-86
2021/11/20 02:31:48;;;;;;;18.98;14.32;;;6.90;99.90;;;;;;5064437;28;20212;-86
2021/11/20 02:34:16;;;;;;;19.42;13.32;;;6.90;99.90;;;;;;5066105;28;20690;-86
2021/11/20 02:36:43;;;;;;;20.05;16.10;;;6.70;99.90;;;;;;5064049;28;20197;-85
2021/11/20 02:39:13;;;;;;;18.23;13.98;;;6.80;99.90;;;;;;5063879;28;20221;-85
2021/11/20 02:41:41;;;;;;;20.55;15.05;;;6.90;99.90;;;;;;5064438;28;20212;-86
2021/11/20 02:44:09;;;;;;;21.48;15.48;;;7.00;99.90;;;;;;5064021;28;20236;-85
2021/11/20 02:46:38;;;;;;;20.95;14.55;;;7.10;99.90;;;;;;5064549;28;20197;-85
2021/11/20 02:49:08;;;;;;;20.23;14.48;;;7.00;99.90;;;;;;5064087;28;20243;-86
2021/11/20 02:51:38;;;;;;;21.25;13.52;;;6.90;99.90;;;;;;5047762;28;20205;-86
2021/11/20 02:54:09;;;;;;;14.48;12.55;;;7.10;99.90;;;;;;5063836;28;20209;-85
2021/11/20 02:56:39;;;;;;;21.08;15.30;;;7.20;99.90;;;;;;5063479;28;20579;-86
2021/11/20 02:59:06;;;;;;;20.42;15.30;;;7.20;99.90;;;;;;5063497;28;20234;-86
2021/11/20 03:01:35;;;;;;;18.08;13.98;;;7.00;99.90;;;;;;5063846;28;20201;-86
2021/11/20 03:04:03;;;;;;;16.30;13.88;;;7.00;99.90;;;;;;5063209;28;20232;-85
2021/11/20 03:06:33;;;;;;;21.00;15.63;;;7.00;99.90;;;;;;5063447;28;20551;-86
2021/11/20 03:09:00;;;;;;;18.35;13.25;;;7.00;99.90;;;;;;5063123;28;20249;-85
2021/11/20 03:11:28;;;;;;;21.17;15.10;;;7.00;99.90;;;;;;5063302;28;20202;-85
2021/11/20 03:13:57;;;;;;;22.40;14.93;;;6.90;99.90;;;;;;5063478;28;20205;-85
2021/11/20 03:16:24;;;;;;;22.58;15.07;;;7.00;99.90;;;;;;5064015;28;20206;-85
2021/11/20 03:18:51;;;;;;;23.48;15.30;;;7.00;99.90;;;;;;5063228;28;20238;-85
2021/11/20 03:21:20;;;;;;;20.60;14.10;;;6.80;99.90;;;;;;5063363;28;20205;-86
2021/11/20 03:23:51;;;;;;;22.02;15.80;;;6.80;99.90;;;;;;5063620;28;20202;-86
2021/11/20 03:26:18;;;;;;;20.95;14.73;;;6.80;99.90;;;;;;5045376;28;20213;-85
2021/11/20 03:28:45;;;;;;;19.52;15.00;;;6.80;99.90;;;;;;5063874;28;20222;-85
2021/11/20 03:31:13;;;;;;;21.95;13.75;;;6.90;99.90;;;;;;5063737;28;20219;-86
2021/11/20 03:33:39;;;;;;;26.50;14.77;;;6.90;99.90;;;;;;5062429;28;20206;-86
2021/11/20 03:36:06;;;;;;;21.70;15.70;;;7.00;99.90;;;;;;5063583;28;20212;-85
2021/11/20 03:38:33;;;;;;;19.20;14.75;;;7.10;99.90;;;;;;5062837;28;20226;-86
2021/11/20 03:41:02;;;;;;;19.77;12.95;;;7.00;99.90;;;;;;5062490;28;20202;-85
2021/11/20 03:43:29;;;;;;;23.45;13.82;;;7.00;99.90;;;;;;5063174;28;20206;-86
2021/11/20 03:45:56;;;;;;;19.90;16.67;;;7.00;99.90;;;;;;5062198;28;20205;-85
2021/11/20 07:16:50;;;;;;;13.10;11.07;;;7.90;99.90;;;;;;5020762;28;20249;-82
2021/11/20 07:19:35;;;;;;;15.18;10.23;;;8.00;99.90;;;;;;5021221;28;20260;-81
2021/11/20 07:22:03;;;;;;;15.82;11.30;;;8.00;99.90;;;;;;5021181;28;20202;-82
2021/11/20 07:31:08;;;;;;;12.75;11.48;;;8.10;99.90;;;;;;5047766;28;20244;-82
2021/11/20 07:33:39;;;;;;;14.80;10.75;;;8.10;99.90;;;;;;5055183;28;20240;-82
2021/11/20 07:36:12;;;;;;;15.35;11.30;;;8.20;99.90;;;;;;5058362;28;20228;-82
2021/11/20 07:38:47;;;;;;;20.70;12.18;;;8.20;99.90;;;;;;5057273;28;20275;-83
2021/11/20 07:41:23;;;;;;;16.27;11.75;;;8.30;99.90;;;;;;5049389;28;20212;-82
2021/11/20 07:43:52;;;;;;;16.05;14.13;;;8.40;99.90;;;;;;5028648;28;20580;-79
2021/11/20 07:46:19;;;;;;;18.38;11.77;;;8.40;99.90;;;;;;5068013;28;20206;-78
2021/11/20 07:48:47;;;;;;;14.73;10.85;;;8.40;99.90;;;;;;5067173;28;20222;-79
2021/11/20 07:51:16;;;;;;;15.55;10.55;;;8.40;99.90;;;;;;5067251;28;20212;-78
2021/11/20 07:53:44;;;;;;;14.20;11.02;;;8.40;99.90;;;;;;5066444;28;20202;-78
2021/11/20 07:56:12;;;;;;;14.93;11.65;;;8.50;99.90;;;;;;5067472;28;20206;-79
2021/11/20 07:58:40;;;;;;;16.55;11.60;;;8.50;99.90;;;;;;5061446;28;20229;-84
2021/11/20 08:01:09;;;;;;;13.30;11.77;;;8.60;99.90;;;;;;5058533;28;20201;-84
2021/11/20 08:03:36;;;;;;;14.52;9.88;;;8.60;99.90;;;;;;5061543;28;20217;-82
2021/11/20 08:06:03;;;;;;;15.07;11.25;;;8.70;99.90;;;;;;5060799;28;20201;-82
2021/11/20 08:08:31;;;;;;;12.57;9.60;;;8.60;99.90;;;;;;5060167;28;20222;-81
2021/11/20 08:10:58;;;;;;;16.15;11.40;;;8.70;99.90;;;;;;5061103;28;20202;-81
2021/11/20 08:13:25;;;;;;;13.05;9.68;;;8.70;99.90;;;;;;5060077;28;20217;-83
2021/11/20 08:15:52;;;;;;;12.77;10.63;;;8.80;99.90;;;;;;5060506;28;20210;-83
2021/11/20 08:18:20;;;;;;;12.77;9.63;;;8.80;99.90;;;;;;5060141;28;20221;-83
2021/11/20 08:20:48;;;;;;;18.08;10.85;;;8.80;99.90;;;;;;5060909;28;20206;-82
2021/11/20 08:23:15;;;;;;;10.50;9.38;;;8.90;99.90;;;;;;5060577;28;20213;-83
2021/11/20 08:25:43;;;;;;;15.30;9.90;;;8.90;99.90;;;;;;5061129;28;20201;-83
2021/11/20 08:28:14;;;;;;;15.63;10.77;;;8.90;99.90;;;;;;5060858;28;20707;-83
2021/11/20 08:30:42;;;;;;;16.05;10.40;;;8.90;99.90;;;;;;5061437;28;20213;-83
2021/11/20 08:33:09;;;;;;;15.38;9.35;;;8.90;99.90;;;;;;5059784;28;20690;-83
2021/11/20 08:35:38;;;;;;;12.50;9.65;;;8.90;99.90;;;;;;5060768;28;20211;-83
2021/11/20 08:38:07;;;;;;;14.50;10.68;;;8.90;99.90;;;;;;5060531;28;20242;-83
2021/11/20 08:40:35;;;;;;;15.82;11.10;;;9.00;99.90;;;;;;5060227;28;20225;-83
2021/11/20 08:43:03;;;;;;;10.55;9.30;;;9.00;99.90;;;;;;5060907;28;20589;-83
2021/11/20 08:45:32;;;;;;;11.80;8.98;;;9.00;99.90;;;;;;5060804;28;20217;-82
2021/11/20 08:48:00;;;;;;;12.13;9.57;;;9.10;99.90;;;;;;5060582;28;20254;-82
2021/11/20 08:50:30;;;;;;;11.80;9.50;;;9.10;99.90;;;;;;5060488;28;20202;-83
2021/11/20 08:52:58;;;;;;;14.70;10.27;;;9.20;99.90;;;;;;5060553;28;20216;-83
2021/11/20 08:55:26;;;;;;;13.80;10.45;;;9.20;99.90;;;;;;5061050;28;20211;-83
2021/11/20 08:57:53;;;;;;;11.05;8.65;;;9.20;99.90;;;;;;5060505;28;20230;-83
2021/11/20 09:00:26;;;;;;;9.80;8.85;;;9.20;99.90;;;;;;5059937;28;20228;-83
2021/11/20 09:02:58;;;;;;;11.88;7.80;;;9.30;99.90;;;;;;5059934;28;20206;-83
2021/11/20 09:05:29;;;;;;;8.85;7.95;;;9.20;99.90;;;;;;5060402;28;20205;-82
2021/11/20 09:08:03;;;;;;;11.18;9.15;;;9.10;99.90;;;;;;5060379;28;20230;-82
2021/11/20 09:10:35;;;;;;;12.70;10.50;;;9.10;99.90;;;;;;5060364;28;20636;-82
2021/11/20 09:13:06;;;;;;;10.35;8.65;;;8.90;99.90;;;;;;5059908;28;20221;-81
2021/11/20 09:15:36;;;;;;;17.25;10.32;;;8.70;99.90;;;;;;5059579;28;20293;-82
2021/11/20 09:18:03;;;;;;;10.73;8.95;;;8.50;99.90;;;;;;5060389;28;20229;-82
2021/11/20 09:20:31;;;;;;;12.85;8.43;;;8.50;99.90;;;;;;5060232;28;20232;-81
2021/11/20 09:22:58;;;;;;;11.85;9.68;;;8.40;99.90;;;;;;5059652;28;20223;-83
2021/11/20 09:25:26;;;;;;;9.32;6.85;;;8.50;99.90;;;;;;5060454;28;20205;-83
2021/11/20 09:27:53;;;;;;;10.00;7.40;;;8.60;99.90;;;;;;5060176;28;20600;-83
2021/11/20 09:30:23;;;;;;;13.93;8.05;;;8.60;99.90;;;;;;5065503;28;20201;-82
2021/11/20 09:32:50;;;;;;;9.10;6.82;;;8.60;99.90;;;;;;5060830;28;20213;-83
2021/11/20 09:35:17;;;;;;;14.25;9.68;;;8.60;99.90;;;;;;5061522;28;20671;-82
2021/11/20 09:37:44;;;;;;;14.40;8.23;;;8.60;99.90;;;;;;5061000;28;20229;-83
2021/11/20 09:40:13;;;;;;;10.30;8.18;;;8.60;99.90;;;;;;5061287;28;20221;-82
2021/11/20 09:42:47;;;;;;;12.48;8.98;;;8.70;99.90;;;;;;5060625;28;20209;-83
2021/11/20 09:45:17;;;;;;;13.30;7.82;;;8.70;99.90;;;;;;5061089;28;20205;-83
2021/11/20 09:47:49;;;;;;;11.30;8.75;;;8.80;99.90;;;;;;5072471;22;20218;-79
2021/11/20 09:50:20;;;;;;;7.60;5.38;;;8.90;99.90;;;;;;5053966;28;20232;-82
2021/11/20 09:52:48;;;;;;;5.22;4.72;;;8.80;99.90;;;;;;5054334;28;20201;-82
2021/11/20 09:55:19;;;;;;;5.32;3.53;;;8.70;99.90;;;;;;5054093;28;20206;-82
2021/11/20 09:57:51;;;;;;;4.28;3.65;;;8.60;99.90;;;;;;5053656;28;20678;-81
2021/11/20 10:00:46;;;;;;;5.97;4.43;;;8.60;99.90;;;;;;5055107;28;20226;-80
2021/11/20 10:03:33;;;;;;;5.32;4.60;;;8.50;99.90;;;;;;5056490;28;20202;-81
2021/11/20 10:06:04;;;;;;;5.60;3.95;;;8.50;99.90;;;;;;5054754;28;20190;-79
2021/11/20 10:08:34;;;;;;;7.72;5.38;;;8.40;99.90;;;;;;5054068;28;20226;-81
2021/11/20 10:11:12;;;;;;;7.32;4.75;;;8.40;99.90;;;;;;5057833;28;20201;-81
2021/11/20 10:13:50;;;;;;;4.03;3.45;;;8.40;99.90;;;;;;5058022;28;20201;-81
2021/11/20 10:16:23;;;;;;;4.25;3.80;;;8.30;99.90;;;;;;5058049;28;20193;-80
2021/11/20 10:18:53;;;;;;;4.38;3.50;;;8.30;99.90;;;;;;5057308;28;20225;-82
2021/11/20 10:21:46;;;;;;;3.45;2.85;;;8.40;99.90;;;;;;5057290;28;20702;-82
2021/11/20 10:24:18;;;;;;;6.60;3.60;;;8.50;99.90;;;;;;5055713;28;20205;-81
2021/11/20 10:27:03;;;;;;;4.82;3.80;;;8.60;99.90;;;;;;5057551;28;20205;-82
2021/11/20 10:30:07;;;;;;;4.15;3.75;;;8.60;99.90;;;;;;5057148;28;20225;-81
2021/11/20 10:32:38;;;;;;;3.75;3.33;;;8.80;99.90;;;;;;5015152;28;20205;-81
2021/11/20 10:35:16;;;;;;;3.20;2.90;;;8.90;99.90;;;;;;5057300;28;20260;-82
2021/11/20 10:37:51;;;;;;;4.97;3.55;;;8.90;99.90;;;;;;5056627;28;20281;-80
2021/11/20 10:40:26;;;;;;;3.40;3.08;;;9.00;99.90;;;;;;5056759;28;20687;-79
2021/11/20 10:42:58;;;;;;;5.95;4.40;;;9.00;99.90;;;;;;5056725;28;20206;-80
2021/11/20 10:45:37;;;;;;;5.32;4.30;;;8.90;99.90;;;;;;5056839;28;20552;-80
2021/11/20 10:48:10;;;;;;;8.48;5.07;;;8.80;99.90;;;;;;5056439;28;20233;-80
2021/11/20 10:50:41;;;;;;;5.05;4.57;;;8.90;99.90;;;;;;5056948;28;20208;-79
2021/11/20 10:53:34;;;;;;;6.30;5.70;;;8.90;99.90;;;;;;5058304;28;20207;-78
2021/11/20 10:56:14;;;;;;;4.40;4.05;;;9.00;99.90;;;;;;5057573;28;20206;-80
2021/11/20 10:59:19;;;;;;;5.50;4.75;;;9.10;99.90;;;;;;5056852;28;20240;-80
2021/11/20 11:02:26;;;;;;;5.15;4.63;;;9.10;99.90;;;;;;5056287;28;20234;-80
2021/11/20 11:05:04;;;;;;;7.30;6.60;;;9.10;99.90;;;;;;5044922;28;20214;-79
2021/11/20 11:07:48;;;;;;;7.13;4.30;;;9.20;99.90;;;;;;5056473;28;20578;-79
2021/11/20 11:10:20;;;;;;;7.50;5.70;;;9.30;99.90;;;;;;5056648;28;20248;-80
2021/11/20 11:12:53;;;;;;;5.95;5.40;;;9.30;99.90;;;;;;5056099;28;20663;-79
2021/11/20 11:15:36;;;;;;;6.85;5.40;;;9.30;99.90;;;;;;5056444;28;20209;-80
2021/11/20 11:18:29;;;;;;;6.63;5.75;;;9.30;99.90;;;;;;5056730;28;20313;-79
2021/11/20 11:21:26;;;;;;;8.13;6.22;;;9.20;99.90;;;;;;5047441;28;20226;-79
2021/11/20 11:24:10;;;;;;;7.78;6.97;;;9.00;99.90;;;;;;5055884;28;20206;-80
2021/11/20 11:26:41;;;;;;;8.35;6.28;;;9.10;99.90;;;;;;5056416;28;20208;-80
2021/11/20 11:29:14;;;;;;;8.05;7.43;;;9.10;99.90;;;;;;5056553;28;20253;-80
2021/11/20 11:31:44;;;;;;;5.97;5.47;;;9.10;99.90;;;;;;5056294;28;20210;-80
2021/11/20 11:34:19;;;;;;;6.43;5.90;;;9.00;99.90;;;;;;5055759;28;20220;-80
2021/11/20 11:36:53;;;;;;;10.30;7.53;;;9.20;99.90;;;;;;5055645;28;20211;-80
2021/11/20 11:39:32;;;;;;;6.93;6.05;;;9.30;99.90;;;;;;5055519;28;20232;-80
2021/11/20 11:42:34;;;;;;;6.78;6.13;;;9.40;99.90;;;;;;5055181;28;20263;-80
2021/11/20 11:45:07;;;;;;;7.22;6.53;;;9.40;99.90;;;;;;5057589;28;20212;-83
2021/11/20 11:47:49;;;;;;;8.35;6.10;;;9.50;99.90;;;;;;5055506;28;20297;-82
2021/11/20 11:50:35;;;;;;;9.82;7.43;;;9.50;99.90;;;;;;5056027;28;20212;-79
2021/11/20 11:53:32;;;;;;;10.50;6.90;;;9.60;99.90;;;;;;5055365;28;20206;-82
2021/11/20 11:55:59;;;;;;;6.75;5.75;;;9.60;99.90;;;;;;5055477;28;20227;-82
2021/11/20 11:58:50;;;;;;;6.80;6.15;;;9.70;99.90;;;;;;5055931;28;20245;-82
2021/11/20 12:01:20;;;;;;;7.88;6.35;;;9.70;99.90;;;;;;5056206;28;20230;-82
2021/11/20 12:04:00;;;;;;;6.55;5.85;;;9.80;99.90;;;;;;5055753;28;20211;-82
2021/11/20 12:06:41;;;;;;;5.93;5.43;;;9.80;99.90;;;;;;5055757;28;20218;-81
2021/11/20 12:09:27;;;;;;;9.20;7.68;;;9.80;99.90;;;;;;5055653;28;20248;-81
2021/11/20 12:12:05;;;;;;;6.75;6.18;;;9.30;99.90;;;;;;5055328;28;20206;-81
2021/11/20 12:14:38;;;;;;;6.32;5.40;;;9.30;99.90;;;;;;5055057;28;20202;-82
2021/11/20 12:17:28;;;;;;;6.10;5.53;;;9.30;99.90;;;;;;5054763;28;20202;-79
2021/11/20 12:20:24;;;;;;;8.25;5.80;;;9.30;99.90;;;;;;5054707;28;20229;-82
2021/11/20 12:22:57;;;;;;;6.82;6.20;;;9.40;99.90;;;;;;5054996;28;20206;-80
2021/11/20 12:25:31;;;;;;;6.95;6.25;;;9.40;99.90;;;;;;5054978;28;20264;-81
2021/11/20 12:28:07;;;;;;;7.70;7.00;;;9.40;99.90;;;;;;5054882;28;20656;-82
2021/11/20 12:30:56;;;;;;;7.78;6.95;;;9.40;99.90;;;;;;5055530;28;20205;-82
2021/11/20 12:33:47;;;;;;;8.23;6.07;;;9.40;99.90;;;;;;5054430;28;20212;-79
2021/11/20 12:36:45;;;;;;;6.55;5.97;;;9.30;99.90;;;;;;5054550;28;20202;-82
2021/11/20 12:39:28;;;;;;;7.97;7.18;;;9.40;99.90;;;;;;5055373;28;20238;-80
2021/11/20 12:42:14;;;;;;;10.27;6.63;;;9.50;99.90;;;;;;5062664;28;20200;-80
2021/11/20 12:45:05;;;;;;;9.90;5.80;;;9.60;99.90;;;;;;5061325;28;20209;-81
2021/11/20 12:48:01;;;;;;;7.55;6.68;;;9.60;99.90;;;;;;5056593;28;20209;-81
2021/11/20 12:50:35;;;;;;;6.80;5.80;;;9.50;99.90;;;;;;5056225;28;20189;-79
2021/11/20 12:53:20;;;;;;;8.30;6.53;;;9.50;99.90;;;;;;5056128;28;21038;-79
2021/11/20 12:56:00;;;;;;;7.03;6.32;;;9.50;99.90;;;;;;5056806;28;20203;-82
2021/11/20 12:58:35;;;;;;;7.97;6.93;;;9.50;99.90;;;;;;5057654;28;20240;-83
2021/11/20 13:01:07;;;;;;;8.32;7.53;;;9.50;99.90;;;;;;5057960;28;20226;-82
2021/11/20 13:03:37;;;;;;;8.50;7.25;;;9.30;99.90;;;;;;5057865;28;20188;-82
2021/11/20 13:06:10;;;;;;;9.15;6.18;;;9.20;99.90;;;;;;5057676;28;20195;-81
2021/11/20 13:08:39;;;;;;;9.27;6.72;;;9.00;99.90;;;;;;5057499;28;20249;-82
2021/11/20 13:11:09;;;;;;;6.25;5.65;;;8.90;99.90;;;;;;5057759;28;20206;-82
2021/11/20 13:13:44;;;;;;;8.85;7.95;;;8.60;99.90;;;;;;5058128;28;20186;-82
2021/11/20 13:16:35;;;;;;;8.60;6.90;;;8.70;99.90;;;;;;5057558;28;20205;-82
2021/11/20 13:19:17;;;;;;;8.10;7.18;;;8.60;99.90;;;;;;5057579;28;20644;-82
2021/11/20 13:35:12;;;;;;;8.57;7.25;;;9.00;99.90;;;;;;5051627;28;20261;-85
2021/11/20 13:51:59;;;;;;;9.23;7.20;;;9.00;99.90;;;;;;5034506;28;20328;-83
2021/11/20 14:18:26;;;;;;;6.40;6.00;;;8.80;99.90;;;;;;5050923;28;20281;-83
2021/11/20 14:21:00;;;;;;;10.48;7.50;;;8.50;99.90;;;;;;5062105;28;20260;-84
2021/11/20 14:23:32;;;;;;;8.15;7.40;;;8.40;99.90;;;;;;5058884;28;20263;-85
2021/11/20 14:26:20;;;;;;;9.85;8.10;;;8.30;99.90;;;;;;5059389;28;20197;-84
2021/11/20 14:28:47;;;;;;;8.90;7.10;;;8.40;99.90;;;;;;5059377;28;20345;-82
2021/11/20 14:31:18;;;;;;;6.88;6.32;;;8.40;99.90;;;;;;5063775;28;20214;-82
2021/11/20 14:33:57;;;;;;;7.43;6.75;;;8.40;99.90;;;;;;5065080;28;20241;-86
2021/11/20 14:36:40;;;;;;;9.35;7.80;;;8.40;99.90;;;;;;5063190;28;20202;-86
2021/11/20 14:39:15;;;;;;;8.93;6.95;;;8.20;99.90;;;;;;5063012;28;20237;-86
2021/11/20 14:41:44;;;;;;;8.38;7.57;;;8.30;99.90;;;;;;5063659;28;20236;-86
2021/11/20 14:44:13;;;;;;;9.57;7.90;;;8.10;99.90;;;;;;5063073;28;20206;-86
2021/11/20 14:46:43;;;;;;;10.63;9.73;;;8.30;99.90;;;;;;5063435;28;20229;-87
2021/11/20 14:49:17;;;;;;;7.53;6.82;;;8.20;99.90;;;;;;5063178;28;20257;-86
2021/11/20 14:51:49;;;;;;;9.85;8.02;;;8.10;99.90;;;;;;5063007;28;20244;-87
2021/11/20 14:54:20;;;;;;;8.93;7.95;;;8.20;99.90;;;;;;5063674;28;20213;-86
2021/11/20 14:56:51;;;;;;;7.40;6.47;;;8.00;99.90;;;;;;5064966;28;20214;-85
2021/11/20 14:59:22;;;;;;;7.53;6.93;;;8.00;99.90;;;;;;5063837;28;20585;-86
2021/11/20 15:01:50;;;;;;;8.38;7.68;;;8.00;99.90;;;;;;5063118;28;20249;-86
2021/11/20 15:04:22;;;;;;;9.13;8.23;;;7.90;99.90;;;;;;5064036;28;20232;-85
2021/11/20 15:06:50;;;;;;;10.13;7.22;;;7.70;99.90;;;;;;5063962;28;20261;-85
2021/11/20 15:09:17;;;;;;;7.13;6.40;;;7.90;99.90;;;;;;5064090;28;20692;-86
2021/11/20 15:11:44;;;;;;;6.30;5.75;;;7.90;99.90;;;;;;5064429;28;20293;-85
2021/11/20 15:14:11;;;;;;;6.85;6.25;;;8.00;99.90;;;;;;5063751;28;20229;-84
2021/11/20 15:16:41;;;;;;;8.35;7.38;;;8.10;99.90;;;;;;5064779;28;20213;-85
2021/11/20 15:19:11;;;;;;;8.88;8.00;;;8.00;99.90;;;;;;5065788;28;20570;-84
2021/11/20 15:21:42;;;;;;;8.23;7.43;;;8.00;99.90;;;;;;5064629;28;20222;-84
2021/11/20 15:24:11;;;;;;;8.57;6.75;;;8.00;99.90;;;;;;5063751;28;20202;-84
2021/11/20 15:26:38;;;;;;;9.23;8.40;;;7.90;99.90;;;;;;5064568;28;20205;-85
2021/11/20 15:29:05;;;;;;;8.90;8.00;;;7.90;99.90;;;;;;5063619;28;20288;-86
2021/11/20 15:31:40;;;;;;;8.30;7.60;;;7.80;99.90;;;;;;5064622;28;20244;-85
2021/11/20 15:34:09;;;;;;;8.50;7.70;;;7.80;99.90;;;;;;5060797;28;20655;-85
2021/11/20 15:36:36;;;;;;;8.75;7.70;;;7.70;99.90;;;;;;5063626;28;20197;-82
2021/11/20 15:39:07;;;;;;;8.45;7.65;;;7.70;99.90;;;;;;5063204;28;20230;-85
2021/11/20 15:41:33;;;;;;;9.18;8.40;;;7.60;99.90;;;;;;5062006;28;20236;-86
2021/11/20 15:44:00;;;;;;;8.68;7.55;;;7.50;99.90;;;;;;5063158;28;20225;-84
2021/11/20 15:46:27;;;;;;;9.02;8.18;;;7.50;99.90;;;;;;5066122;28;20206;-85
2021/11/20 16:55:38;;;;;;;16.17;14.57;;;5.80;99.90;;;;;;4843913;29;20691;-82
2021/11/20 16:58:05;;;;;;;17.40;15.57;;;5.80;99.90;;;;;;4943132;28;20220;-81
2021/11/20 17:00:32;;;;;;;17.63;15.18;;;5.90;99.90;;;;;;5042550;28;20205;-81
2021/11/20 19:15:22;;;;;;;23.05;14.40;;;6.00;99.90;;;;;;4812208;29;20704;-82
2021/11/20 19:17:49;;;;;;;34.00;18.65;;;5.90;99.90;;;;;;4821424;29;20790;-84
2021/11/20 19:20:16;;;;;;;21.30;15.40;;;5.90;99.90;;;;;;4883761;29;20223;-88
2021/11/20 19:22:45;;;;;;;24.42;16.13;;;5.80;99.90;;;;;;4990854;28;20309;-86
2021/11/20 19:25:13;;;;;;;24.77;16.58;;;5.80;99.90;;;;;;5048907;28;20706;-84
2021/11/20 19:27:40;;;;;;;26.25;16.70;;;5.90;99.90;;;;;;5050053;28;20202;-85
2021/11/20 19:30:11;;;;;;;23.25;14.38;;;5.80;99.90;;;;;;5048997;28;20297;-84
2021/11/20 19:32:39;;;;;;;26.58;17.42;;;5.70;99.90;;;;;;5048340;28;20253;-84
2021/11/20 19:35:08;;;;;;;21.40;15.02;;;5.60;99.90;;;;;;5047944;28;20217;-84
2021/11/20 19:37:35;;;;;;;21.63;13.23;;;5.60;99.90;;;;;;5049808;28;20269;-84
2021/11/20 19:40:02;;;;;;;21.27;14.43;;;5.60;99.90;;;;;;5049204;28;20300;-84
2021/11/20 19:42:29;;;;;;;19.48;13.02;;;5.50;99.90;;;;;;5049400;28;20218;-83
2021/11/20 19:44:56;;;;;;;19.40;15.23;;;5.50;99.90;;;;;;5048942;28;20265;-84
2021/11/20 19:47:23;;;;;;;24.45;15.55;;;5.50;99.90;;;;;;5048942;28;20203;-83
2021/11/20 19:49:52;;;;;;;33.58;15.85;;;5.50;99.90;;;;;;5051345;28;20222;-83
2021/11/20 19:52:19;;;;;;;32.30;17.83;;;5.50;99.90;;;;;;5041758;28;20194;-82
2021/11/20 19:54:45;;;;;;;25.92;17.48;;;5.50;99.90;;;;;;5038028;28;20222;-82
2021/11/20 19:57:12;;;;;;;24.67;16.02;;;5.50;99.90;;;;;;5039136;28;20206;-81
2021/11/20 19:59:39;;;;;;;28.75;17.10;;;5.60;99.90;;;;;;5039707;28;20733;-81
2021/11/20 20:02:06;;;;;;;29.67;16.27;;;5.50;99.90;;;;;;5035517;28;20227;-80
2021/11/20 20:04:34;;;;;;;29.17;18.63;;;5.50;99.90;;;;;;5035820;28;20257;-82
2021/11/20 20:07:02;;;;;;;19.30;12.80;;;5.50;99.90;;;;;;5037732;28;20198;-80
2021/11/20 20:09:30;;;;;;;24.55;16.50;;;5.40;99.90;;;;;;5037283;28;20266;-82
2021/11/20 20:11:57;;;;;;;20.38;12.70;;;5.20;99.90;;;;;;5037018;28;20198;-82
2021/11/20 20:14:23;;;;;;;18.10;12.68;;;5.30;99.90;;;;;;5037515;28;20203;-81
2021/11/20 20:16:50;;;;;;;17.05;13.07;;;5.20;99.90;;;;;;5038940;28;20224;-79
2021/11/20 20:19:19;;;;;;;19.48;15.35;;;5.20;99.90;;;;;;5033524;28;20225;-81
2021/11/20 20:21:46;;;;;;;29.88;16.15;;;5.30;99.90;;;;;;5029735;28;20255;-81
2021/11/20 20:24:14;;;;;;;19.88;13.93;;;5.20;99.90;;;;;;5030269;28;20438;-79
2021/11/20 20:26:41;;;;;;;20.95;14.70;;;5.10;99.90;;;;;;5029027;28;20207;-81
2021/11/20 20:29:11;;;;;;;25.38;14.63;;;5.10;99.90;;;;;;5026926;28;20214;-81
2021/11/20 20:31:43;;;;;;;20.70;13.25;;;5.00;99.90;;;;;;5031303;28;20281;-82
2021/11/20 20:34:11;;;;;;;28.98;14.82;;;5.00;99.90;;;;;;5026512;28;20205;-80
2021/11/20 20:36:38;;;;;;;17.17;12.48;;;4.90;99.90;;;;;;5030597;28;20205;-80
2021/11/20 20:39:07;;;;;;;13.52;10.70;;;4.80;99.90;;;;;;5026113;28;20247;-80
2021/11/20 20:41:36;;;;;;;16.35;11.65;;;4.80;99.90;;;;;;5026356;28;20293;-81
2021/11/20 20:44:03;;;;;;;21.15;13.50;;;4.70;99.90;;;;;;5031169;28;20194;-82
2021/11/20 20:46:31;;;;;;;18.30;13.25;;;4.60;99.90;;;;;;5029262;28;20293;-81
2021/11/20 20:48:57;;;;;;;19.02;12.15;;;4.60;99.90;;;;;;5035189;28;20238;-83
2021/11/20 20:51:25;;;;;;;16.13;11.75;;;4.60;99.90;;;;;;5036658;28;20222;-82
2021/11/20 20:53:53;;;;;;;26.73;12.93;;;4.40;99.90;;;;;;5045230;28;20218;-84
2021/11/20 20:56:19;;;;;;;20.60;13.45;;;4.50;99.90;;;;;;5042414;28;20233;-83